createdAt,value
2016-12-07T00:00:16.005Z,931.08
2016-12-07T00:00:43.715Z,931.08
2016-12-07T00:01:11.405Z,931.08
2016-12-07T00:01:39.135Z,931.04
2016-12-07T00:02:06.869Z,931.04
2016-12-07T00:02:34.692Z,931.06
2016-12-07T00:03:02.373Z,931.06
2016-12-07T00:03:30.193Z,931.05
2016-12-07T00:03:57.879Z,931.04
2016-12-07T00:04:25.579Z,931.05
2016-12-07T00:04:53.348Z,931.08
2016-12-07T00:05:21.036Z,931.06
2016-12-07T00:05:48.759Z,931.06
2016-12-07T00:06:16.444Z,931.09
2016-12-07T00:06:44.164Z,931.08
2016-12-07T00:07:11.890Z,931.06
2016-12-07T00:07:39.592Z,931.11
2016-12-07T00:08:07.274Z,931.11
2016-12-07T00:08:34.974Z,931.1
2016-12-07T00:09:02.732Z,931.11
2016-12-07T00:09:30.437Z,931.17
2016-12-07T00:09:58.439Z,931.16
2016-12-07T00:10:26.337Z,931.16
2016-12-07T00:10:54.047Z,931.18
2016-12-07T00:11:21.718Z,931.15
2016-12-07T00:11:49.505Z,931.16
2016-12-07T00:12:17.204Z,931.24
2016-12-07T00:12:45.012Z,931.21
2016-12-07T00:13:12.729Z,931.23
2016-12-07T00:13:40.589Z,931.22
2016-12-07T00:14:08.311Z,931.21
2016-12-07T00:14:36.095Z,931.23
2016-12-07T00:15:03.767Z,931.28
2016-12-07T00:15:31.437Z,931.26
2016-12-07T00:15:59.236Z,931.28
2016-12-07T00:16:26.971Z,931.28
2016-12-07T00:16:54.782Z,931.32
2016-12-07T00:17:22.585Z,931.28
2016-12-07T00:17:50.310Z,931.28
2016-12-07T00:18:18.314Z,931.24
2016-12-07T00:18:46.011Z,931.27
2016-12-07T00:19:13.707Z,931.27
2016-12-07T00:19:41.385Z,931.23
2016-12-07T00:20:09.074Z,931.24
2016-12-07T00:20:36.797Z,931.25
2016-12-07T00:21:04.524Z,931.25
2016-12-07T00:21:32.211Z,931.27
2016-12-07T00:21:59.913Z,931.27
2016-12-07T00:22:27.618Z,931.27
2016-12-07T00:22:55.363Z,931.28
2016-12-07T00:23:23.221Z,931.3
2016-12-07T00:23:51.211Z,931.32
2016-12-07T00:24:19.007Z,931.38
2016-12-07T00:24:46.804Z,931.34
2016-12-07T00:25:14.498Z,931.39
2016-12-07T00:25:42.362Z,931.35
2016-12-07T00:26:10.048Z,931.37
2016-12-07T00:26:37.834Z,931.4
2016-12-07T00:27:05.641Z,931.41
2016-12-07T00:27:33.353Z,931.34
2016-12-07T00:28:01.261Z,931.34
2016-12-07T00:28:29.059Z,931.37
2016-12-07T00:28:56.749Z,931.4
2016-12-07T00:29:24.457Z,931.37
2016-12-07T00:29:52.194Z,931.39
2016-12-07T00:30:19.924Z,931.38
2016-12-07T00:30:47.599Z,931.4
2016-12-07T00:31:15.366Z,931.38
2016-12-07T00:31:43.072Z,931.45
2016-12-07T00:32:10.751Z,931.4
2016-12-07T00:32:38.532Z,931.41
2016-12-07T00:33:06.234Z,931.44
2016-12-07T00:33:33.901Z,931.41
2016-12-07T00:34:01.572Z,931.45
2016-12-07T00:34:29.275Z,931.44
2016-12-07T00:34:57.037Z,931.49
2016-12-07T00:35:24.708Z,931.48
2016-12-07T00:35:52.542Z,931.5
2016-12-07T00:36:20.317Z,931.53
2016-12-07T00:36:48.023Z,931.55
2016-12-07T00:37:15.758Z,931.53
2016-12-07T00:37:43.440Z,931.57
2016-12-07T00:38:11.419Z,931.55
2016-12-07T00:38:39.090Z,931.53
2016-12-07T00:39:06.779Z,931.55
2016-12-07T00:39:34.469Z,931.55
2016-12-07T00:40:02.177Z,931.53
2016-12-07T00:40:29.857Z,931.51
2016-12-07T00:40:57.544Z,931.51
2016-12-07T00:41:25.260Z,931.48
2016-12-07T00:41:52.940Z,931.47
2016-12-07T00:42:20.651Z,931.51
2016-12-07T00:42:48.335Z,931.52
2016-12-07T00:43:16.065Z,931.51
2016-12-07T00:43:43.880Z,931.51
2016-12-07T00:44:11.615Z,931.52
2016-12-07T00:44:39.521Z,931.49
2016-12-07T00:45:07.204Z,931.49
2016-12-07T00:45:34.903Z,931.49
2016-12-07T00:46:02.596Z,931.46
2016-12-07T00:46:30.304Z,931.49
2016-12-07T00:46:57.986Z,931.43
2016-12-07T00:47:25.757Z,931.44
2016-12-07T00:47:53.457Z,931.44
2016-12-07T00:48:21.314Z,931.43
2016-12-07T00:48:49.025Z,931.42
2016-12-07T00:49:16.713Z,931.4
2016-12-07T00:49:44.375Z,931.42
2016-12-07T00:50:12.107Z,931.44
2016-12-07T00:50:39.791Z,931.44
2016-12-07T00:51:07.505Z,931.43
2016-12-07T00:51:35.174Z,931.41
2016-12-07T00:52:02.964Z,931.41
2016-12-07T00:52:30.655Z,931.39
2016-12-07T00:52:58.346Z,931.41
2016-12-07T00:53:26.030Z,931.44
2016-12-07T00:53:53.725Z,931.43
2016-12-07T00:54:21.407Z,931.41
2016-12-07T00:54:49.082Z,931.42
2016-12-07T00:55:16.902Z,931.43
2016-12-07T00:55:44.591Z,931.42
2016-12-07T00:56:12.300Z,931.48
2016-12-07T00:56:40.012Z,931.45
2016-12-07T00:57:07.868Z,931.44
2016-12-07T00:57:35.597Z,931.48
2016-12-07T00:58:03.295Z,931.46
2016-12-07T00:58:31.024Z,931.43
2016-12-07T00:58:58.703Z,931.46
2016-12-07T00:59:26.425Z,931.44
2016-12-07T00:59:54.111Z,931.45
2016-12-07T01:00:21.896Z,931.48
2016-12-07T01:00:49.684Z,931.44
2016-12-07T01:01:17.479Z,931.44
2016-12-07T01:01:45.141Z,931.45
2016-12-07T01:02:12.860Z,931.46
2016-12-07T01:02:40.531Z,931.42
2016-12-07T01:03:08.245Z,931.41
2016-12-07T01:03:35.924Z,931.44
2016-12-07T01:04:03.639Z,931.41
2016-12-07T01:04:31.353Z,931.4
2016-12-07T01:04:59.060Z,931.41
2016-12-07T01:05:26.720Z,931.4
2016-12-07T01:05:54.416Z,931.41
2016-12-07T01:06:22.107Z,931.39
2016-12-07T01:06:50.008Z,931.39
2016-12-07T01:07:17.799Z,931.39
2016-12-07T01:07:45.468Z,931.4
2016-12-07T01:08:13.147Z,931.36
2016-12-07T01:08:40.855Z,931.38
2016-12-07T01:09:08.549Z,931.37
2016-12-07T01:09:36.271Z,931.38
2016-12-07T01:10:03.954Z,931.37
2016-12-07T01:10:31.662Z,931.4
2016-12-07T01:10:59.378Z,931.39
2016-12-07T01:11:27.058Z,931.39
2016-12-07T01:11:54.721Z,931.39
2016-12-07T01:12:22.401Z,931.42
2016-12-07T01:12:50.195Z,931.41
2016-12-07T01:13:17.929Z,931.4
2016-12-07T01:13:45.703Z,931.42
2016-12-07T01:14:13.471Z,931.41
2016-12-07T01:14:41.181Z,931.38
2016-12-07T01:15:08.866Z,931.39
2016-12-07T01:15:36.556Z,931.4
2016-12-07T01:16:04.347Z,931.4
2016-12-07T01:16:32.026Z,931.42
2016-12-07T01:16:59.739Z,931.39
2016-12-07T01:17:27.456Z,931.41
2016-12-07T01:17:55.142Z,931.4
2016-12-07T01:18:22.918Z,931.4
2016-12-07T01:18:50.715Z,931.39
2016-12-07T01:19:18.423Z,931.42
2016-12-07T01:19:46.108Z,931.41
2016-12-07T01:20:13.877Z,931.38
2016-12-07T01:20:41.581Z,931.37
2016-12-07T01:21:09.269Z,931.38
2016-12-07T01:21:36.964Z,931.33
2016-12-07T01:22:04.748Z,931.37
2016-12-07T01:22:32.439Z,931.35
2016-12-07T01:23:00.240Z,931.31
2016-12-07T01:23:27.927Z,931.33
2016-12-07T01:23:55.738Z,931.33
2016-12-07T01:24:23.433Z,931.25
2016-12-07T01:24:51.095Z,931.27
2016-12-07T01:25:18.786Z,931.28
2016-12-07T01:25:46.495Z,931.25
2016-12-07T01:26:14.314Z,931.24
2016-12-07T01:26:41.987Z,931.2
2016-12-07T01:27:09.682Z,931.2
2016-12-07T01:27:37.384Z,931.19
2016-12-07T01:28:05.112Z,931.16
2016-12-07T01:28:32.800Z,931.17
2016-12-07T01:29:00.602Z,931.18
2016-12-07T01:29:28.321Z,931.16
2016-12-07T01:29:56.020Z,931.18
2016-12-07T01:30:23.907Z,931.21
2016-12-07T01:30:51.611Z,931.21
2016-12-07T01:31:19.326Z,931.2
2016-12-07T01:31:47.023Z,931.21
2016-12-07T01:32:14.713Z,931.18
2016-12-07T01:32:42.385Z,931.19
2016-12-07T01:33:10.074Z,931.2
2016-12-07T01:33:37.784Z,931.16
2016-12-07T01:34:05.507Z,931.18
2016-12-07T01:34:33.219Z,931.16
2016-12-07T01:35:00.904Z,931.16
2016-12-07T01:35:28.576Z,931.12
2016-12-07T01:35:56.295Z,931.09
2016-12-07T01:36:23.972Z,931.09
2016-12-07T01:36:51.664Z,931.06
2016-12-07T01:37:19.437Z,930.97
2016-12-07T01:37:47.126Z,931
2016-12-07T01:38:14.827Z,931.01
2016-12-07T01:38:42.484Z,930.96
2016-12-07T01:39:10.169Z,930.98
2016-12-07T01:39:37.841Z,930.97
2016-12-07T01:40:05.512Z,930.92
2016-12-07T01:40:33.327Z,930.92
2016-12-07T01:41:01.004Z,930.97
2016-12-07T01:41:28.712Z,930.95
2016-12-07T01:41:56.430Z,930.94
2016-12-07T01:42:24.111Z,930.92
2016-12-07T01:42:51.877Z,930.94
2016-12-07T01:43:19.762Z,930.94
2016-12-07T01:43:47.451Z,930.92
2016-12-07T01:44:15.145Z,930.96
2016-12-07T01:44:42.944Z,930.94
2016-12-07T01:45:10.636Z,930.9
2016-12-07T01:45:38.395Z,930.89
2016-12-07T01:46:06.095Z,930.87
2016-12-07T01:46:33.794Z,930.88
2016-12-07T01:47:01.511Z,930.88
2016-12-07T01:47:29.202Z,930.88
2016-12-07T01:47:57.031Z,930.84
2016-12-07T01:48:24.745Z,930.87
2016-12-07T01:48:52.418Z,930.83
2016-12-07T01:49:20.119Z,930.84
2016-12-07T01:49:47.911Z,930.86
2016-12-07T01:50:15.616Z,930.82
2016-12-07T01:50:43.491Z,930.8
2016-12-07T01:51:11.183Z,930.79
2016-12-07T01:51:38.902Z,930.8
2016-12-07T01:52:06.611Z,930.75
2016-12-07T01:52:34.305Z,930.81
2016-12-07T01:53:02.025Z,930.8
2016-12-07T01:53:29.722Z,930.79
2016-12-07T01:53:57.410Z,930.79
2016-12-07T01:54:25.090Z,930.78
2016-12-07T01:54:52.796Z,930.76
2016-12-07T01:55:20.513Z,930.78
2016-12-07T01:55:48.190Z,930.78
2016-12-07T01:56:15.887Z,930.8
2016-12-07T01:56:43.675Z,930.78
2016-12-07T01:57:11.452Z,930.75
2016-12-07T01:57:39.188Z,930.75
2016-12-07T01:58:06.930Z,930.76
2016-12-07T01:58:34.664Z,930.73
2016-12-07T01:59:02.351Z,930.68
2016-12-07T01:59:30.044Z,930.68
2016-12-07T01:59:57.809Z,930.68
2016-12-07T02:00:25.515Z,930.7
2016-12-07T02:00:53.220Z,930.65
2016-12-07T02:01:20.901Z,930.66
2016-12-07T02:01:48.571Z,930.69
2016-12-07T02:02:16.259Z,930.66
2016-12-07T02:02:44.075Z,930.63
2016-12-07T02:03:11.756Z,930.62
2016-12-07T02:03:39.463Z,930.65
2016-12-07T02:04:07.249Z,930.65
2016-12-07T02:04:34.939Z,930.58
2016-12-07T02:05:02.627Z,930.57
2016-12-07T02:05:30.320Z,930.59
2016-12-07T02:05:57.994Z,930.51
2016-12-07T02:06:25.712Z,930.51
2016-12-07T02:06:53.382Z,930.49
2016-12-07T02:07:21.064Z,930.47
2016-12-07T02:07:48.763Z,930.45
2016-12-07T02:08:16.462Z,930.44
2016-12-07T02:08:44.179Z,930.42
2016-12-07T02:09:11.894Z,930.4
2016-12-07T02:09:39.583Z,930.42
2016-12-07T02:10:07.260Z,930.37
2016-12-07T02:10:34.936Z,930.38
2016-12-07T02:11:02.651Z,930.32
2016-12-07T02:11:30.343Z,930.36
2016-12-07T02:11:57.998Z,930.36
2016-12-07T02:12:25.702Z,930.33
2016-12-07T02:12:53.399Z,930.35
2016-12-07T02:13:21.102Z,930.36
2016-12-07T02:13:48.803Z,930.32
2016-12-07T02:14:16.515Z,930.33
2016-12-07T02:14:44.212Z,930.31
2016-12-07T02:15:11.919Z,930.33
2016-12-07T02:15:39.691Z,930.37
2016-12-07T02:16:07.376Z,930.32
2016-12-07T02:16:35.104Z,930.33
2016-12-07T02:17:02.809Z,930.38
2016-12-07T02:17:30.579Z,930.41
2016-12-07T02:17:58.292Z,930.38
2016-12-07T02:18:26.025Z,930.44
2016-12-07T02:18:53.790Z,930.43
2016-12-07T02:19:21.469Z,930.45
2016-12-07T02:19:49.265Z,930.46
2016-12-07T02:20:16.951Z,930.46
2016-12-07T02:20:44.670Z,930.44
2016-12-07T02:21:12.375Z,930.48
2016-12-07T02:21:40.070Z,930.46
2016-12-07T02:22:07.860Z,930.48
2016-12-07T02:22:35.557Z,930.49
2016-12-07T02:23:03.331Z,930.46
2016-12-07T02:23:31.126Z,930.46
2016-12-07T02:23:58.813Z,930.46
2016-12-07T02:24:26.500Z,930.44
2016-12-07T02:24:54.206Z,930.43
2016-12-07T02:25:21.911Z,930.42
2016-12-07T02:25:49.633Z,930.39
2016-12-07T02:26:17.406Z,930.39
2016-12-07T02:26:45.078Z,930.38
2016-12-07T02:27:12.753Z,930.38
2016-12-07T02:27:40.439Z,930.38
2016-12-07T02:28:08.243Z,930.38
2016-12-07T02:28:36.011Z,930.39
2016-12-07T02:29:03.688Z,930.41
2016-12-07T02:29:31.418Z,930.44
2016-12-07T02:29:59.100Z,930.42
2016-12-07T02:30:26.792Z,930.42
2016-12-07T02:30:54.516Z,930.39
2016-12-07T02:31:22.338Z,930.39
2016-12-07T02:31:50.009Z,930.42
2016-12-07T02:32:17.667Z,930.44
2016-12-07T02:32:45.346Z,930.43
2016-12-07T02:33:13.054Z,930.41
2016-12-07T02:33:40.747Z,930.42
2016-12-07T02:34:08.556Z,930.37
2016-12-07T02:34:36.222Z,930.39
2016-12-07T02:35:03.928Z,930.39
2016-12-07T02:35:31.624Z,930.37
2016-12-07T02:35:59.304Z,930.4
2016-12-07T02:36:26.992Z,930.37
2016-12-07T02:36:54.714Z,930.35
2016-12-07T02:37:22.406Z,930.35
2016-12-07T02:37:50.100Z,930.37
2016-12-07T02:38:17.850Z,930.34
2016-12-07T02:38:45.634Z,930.35
2016-12-07T02:39:13.331Z,930.38
2016-12-07T02:39:41.035Z,930.33
2016-12-07T02:40:08.739Z,930.31
2016-12-07T02:40:36.402Z,930.36
2016-12-07T02:41:04.188Z,930.37
2016-12-07T02:41:31.852Z,930.33
2016-12-07T02:41:59.528Z,930.37
2016-12-07T02:42:27.213Z,930.37
2016-12-07T02:42:54.901Z,930.42
2016-12-07T02:43:22.606Z,930.41
2016-12-07T02:43:50.295Z,930.41
2016-12-07T02:44:18.029Z,930.41
2016-12-07T02:44:45.708Z,930.39
2016-12-07T02:45:13.407Z,930.41
2016-12-07T02:45:41.084Z,930.36
2016-12-07T02:46:08.749Z,930.35
2016-12-07T02:46:36.533Z,930.36
2016-12-07T02:47:04.301Z,930.32
2016-12-07T02:47:31.996Z,930.3
2016-12-07T02:47:59.770Z,930.29
2016-12-07T02:48:27.456Z,930.25
2016-12-07T02:48:55.130Z,930.23
2016-12-07T02:49:22.831Z,930.22
2016-12-07T02:49:50.509Z,930.21
2016-12-07T02:50:18.175Z,930.21
2016-12-07T02:50:45.895Z,930.19
2016-12-07T02:51:13.606Z,930.2
2016-12-07T02:51:41.305Z,930.25
2016-12-07T02:52:09.084Z,930.23
2016-12-07T02:52:36.776Z,930.17
2016-12-07T02:53:04.488Z,930.15
2016-12-07T02:53:32.203Z,930.12
2016-12-07T02:53:59.907Z,930.11
2016-12-07T02:54:27.699Z,930.07
2016-12-07T02:54:55.420Z,930.05
2016-12-07T02:55:23.173Z,930.05
2016-12-07T02:55:50.890Z,930.04
2016-12-07T02:56:18.669Z,929.99
2016-12-07T02:56:46.343Z,929.98
2016-12-07T02:57:14.053Z,930.01
2016-12-07T02:57:41.720Z,930.01
2016-12-07T02:58:09.430Z,929.95
2016-12-07T02:58:37.120Z,929.98
2016-12-07T02:59:04.907Z,929.98
2016-12-07T02:59:32.654Z,929.95
2016-12-07T03:00:00.477Z,929.94
2016-12-07T03:00:28.497Z,929.91
2016-12-07T03:00:56.209Z,929.94
2016-12-07T03:01:23.980Z,929.9
2016-12-07T03:01:51.863Z,929.89
2016-12-07T03:02:19.564Z,929.88
2016-12-07T03:02:47.259Z,929.84
2016-12-07T03:03:15.045Z,929.85
2016-12-07T03:03:42.904Z,929.84
2016-12-07T03:04:10.590Z,929.77
2016-12-07T03:04:38.268Z,929.77
2016-12-07T03:05:05.970Z,929.78
2016-12-07T03:05:33.651Z,929.75
2016-12-07T03:06:01.354Z,929.73
2016-12-07T03:06:29.033Z,929.72
2016-12-07T03:06:56.737Z,929.72
2016-12-07T03:07:24.426Z,929.7
2016-12-07T03:07:52.109Z,929.68
2016-12-07T03:08:19.864Z,929.67
2016-12-07T03:08:47.582Z,929.68
2016-12-07T03:09:15.272Z,929.67
2016-12-07T03:09:42.959Z,929.64
2016-12-07T03:10:10.662Z,929.64
2016-12-07T03:10:38.436Z,929.63
2016-12-07T03:11:06.209Z,929.62
2016-12-07T03:11:33.916Z,929.63
2016-12-07T03:12:01.606Z,929.59
2016-12-07T03:12:29.332Z,929.59
2016-12-07T03:12:57.031Z,929.58
2016-12-07T03:13:24.721Z,929.56
2016-12-07T03:13:52.414Z,929.5
2016-12-07T03:14:20.111Z,929.5
2016-12-07T03:14:47.793Z,929.48
2016-12-07T03:15:15.623Z,929.46
2016-12-07T03:15:43.402Z,929.45
2016-12-07T03:16:11.124Z,929.43
2016-12-07T03:16:38.842Z,929.39
2016-12-07T03:17:06.610Z,929.38
2016-12-07T03:17:34.290Z,929.32
2016-12-07T03:18:01.985Z,929.29
2016-12-07T03:18:29.702Z,929.26
2016-12-07T03:18:57.405Z,929.23
2016-12-07T03:19:25.090Z,929.15
2016-12-07T03:19:52.759Z,929.18
2016-12-07T03:20:20.463Z,929.15
2016-12-07T03:20:48.285Z,929.1
2016-12-07T03:21:16.006Z,929.07
2016-12-07T03:21:43.699Z,929.05
2016-12-07T03:22:11.378Z,929.05
2016-12-07T03:22:39.056Z,929
2016-12-07T03:23:06.754Z,929.02
2016-12-07T03:23:34.435Z,928.99
2016-12-07T03:24:02.238Z,928.97
2016-12-07T03:24:29.930Z,928.96
2016-12-07T03:24:57.602Z,928.99
2016-12-07T03:25:25.322Z,928.96
2016-12-07T03:25:52.986Z,928.96
2016-12-07T03:26:20.735Z,928.94
2016-12-07T03:26:48.462Z,928.94
2016-12-07T03:27:16.162Z,928.92
2016-12-07T03:27:43.952Z,928.91
2016-12-07T03:28:11.731Z,928.93
2016-12-07T03:28:39.417Z,928.88
2016-12-07T03:29:07.113Z,928.86
2016-12-07T03:29:34.823Z,928.85
2016-12-07T03:30:02.515Z,928.83
2016-12-07T03:30:30.210Z,928.81
2016-12-07T03:30:57.929Z,928.75
2016-12-07T03:31:25.655Z,928.73
2016-12-07T03:31:53.371Z,928.74
2016-12-07T03:32:21.166Z,928.72
2016-12-07T03:32:48.884Z,928.71
2016-12-07T03:33:16.569Z,928.73
2016-12-07T03:33:44.271Z,928.72
2016-12-07T03:34:12.055Z,928.72
2016-12-07T03:34:39.732Z,928.72
2016-12-07T03:35:07.618Z,928.74
2016-12-07T03:35:35.324Z,928.74
2016-12-07T03:36:03.004Z,928.75
2016-12-07T03:36:30.717Z,928.76
2016-12-07T03:36:58.398Z,928.8
2016-12-07T03:37:26.282Z,928.78
2016-12-07T03:37:54.070Z,928.82
2016-12-07T03:38:21.923Z,928.8
2016-12-07T03:38:49.683Z,928.8
2016-12-07T03:39:17.473Z,928.87
2016-12-07T03:39:45.236Z,928.86
2016-12-07T03:40:13.018Z,928.88
2016-12-07T03:40:40.726Z,928.87
2016-12-07T03:41:08.402Z,928.85
2016-12-07T03:41:36.062Z,928.92
2016-12-07T03:42:03.756Z,928.93
2016-12-07T03:42:31.469Z,928.98
2016-12-07T03:42:59.264Z,929
2016-12-07T03:43:27.028Z,928.99
2016-12-07T03:43:54.717Z,929.03
2016-12-07T03:44:22.415Z,929.02
2016-12-07T03:44:50.136Z,929.02
2016-12-07T03:45:17.929Z,929.02
2016-12-07T03:45:45.612Z,929.04
2016-12-07T03:46:13.287Z,929.04
2016-12-07T03:46:41.140Z,929.05
2016-12-07T03:47:08.824Z,929
2016-12-07T03:47:36.509Z,929.03
2016-12-07T03:48:04.202Z,929.02
2016-12-07T03:48:31.904Z,929
2016-12-07T03:48:59.594Z,928.98
2016-12-07T03:49:27.306Z,929.02
2016-12-07T03:49:55.110Z,928.99
2016-12-07T03:50:22.790Z,928.98
2016-12-07T03:50:50.504Z,928.98
2016-12-07T03:51:18.194Z,928.97
2016-12-07T03:51:45.887Z,928.98
2016-12-07T03:52:13.582Z,928.97
2016-12-07T03:52:41.397Z,929.02
2016-12-07T03:53:09.060Z,929.01
2016-12-07T03:53:36.743Z,929.02
2016-12-07T03:54:04.433Z,928.96
2016-12-07T03:54:32.214Z,929
2016-12-07T03:54:59.905Z,929.01
2016-12-07T03:55:27.584Z,929.03
2016-12-07T03:55:55.265Z,929
2016-12-07T03:56:23.006Z,928.99
2016-12-07T03:56:50.708Z,929.04
2016-12-07T03:57:18.508Z,929.02
2016-12-07T03:57:46.314Z,929.01
2016-12-07T03:58:14.148Z,929.03
2016-12-07T03:58:41.909Z,929.02
2016-12-07T03:59:09.702Z,929
2016-12-07T03:59:37.475Z,929.04
2016-12-07T04:00:05.169Z,929.05
2016-12-07T04:00:32.876Z,929.04
2016-12-07T04:01:00.572Z,929.06
2016-12-07T04:01:28.378Z,929.06
2016-12-07T04:01:56.063Z,929.09
2016-12-07T04:02:23.779Z,929.09
2016-12-07T04:02:51.441Z,929.06
2016-12-07T04:03:19.146Z,929.1
2016-12-07T04:03:46.874Z,929.1
2016-12-07T04:04:14.646Z,929.1
2016-12-07T04:04:42.318Z,929.09
2016-12-07T04:05:10.016Z,929.04
2016-12-07T04:05:37.714Z,929.07
2016-12-07T04:06:05.370Z,929.09
2016-12-07T04:06:33.028Z,929.04
2016-12-07T04:07:00.689Z,929.06
2016-12-07T04:07:28.377Z,929.05
2016-12-07T04:07:56.076Z,929.04
2016-12-07T04:08:23.804Z,929.08
2016-12-07T04:08:51.490Z,929.06
2016-12-07T04:09:19.208Z,929.06
2016-12-07T04:09:46.922Z,929.09
2016-12-07T04:10:14.706Z,929.09
2016-12-07T04:10:42.477Z,929.06
2016-12-07T04:11:10.150Z,929.06
2016-12-07T04:11:37.860Z,929.09
2016-12-07T04:12:05.565Z,929.06
2016-12-07T04:12:33.284Z,929.07
2016-12-07T04:13:01.023Z,929.08
2016-12-07T04:13:28.848Z,929.08
2016-12-07T04:13:56.555Z,929.08
2016-12-07T04:14:24.263Z,929.06
2016-12-07T04:14:52.073Z,929.07
2016-12-07T04:15:19.845Z,929.1
2016-12-07T04:15:47.525Z,929.04
2016-12-07T04:16:15.223Z,929.07
2016-12-07T04:16:42.929Z,929.05
2016-12-07T04:17:10.624Z,929.03
2016-12-07T04:17:38.681Z,929.06
2016-12-07T04:18:06.389Z,929.08
2016-12-07T04:18:34.080Z,929.09
2016-12-07T04:19:01.747Z,929.06
2016-12-07T04:19:29.461Z,929.09
2016-12-07T04:19:57.224Z,929.09
2016-12-07T04:20:25.001Z,929.15
2016-12-07T04:20:52.709Z,929.13
2016-12-07T04:21:20.394Z,929.12
2016-12-07T04:21:48.080Z,929.11
2016-12-07T04:22:15.896Z,929.12
2016-12-07T04:22:43.618Z,929.18
2016-12-07T04:23:11.288Z,929.15
2016-12-07T04:23:38.989Z,929.13
2016-12-07T04:24:06.689Z,929.17
2016-12-07T04:24:34.385Z,929.17
2016-12-07T04:25:02.098Z,929.16
2016-12-07T04:25:29.763Z,929.16
2016-12-07T04:25:57.464Z,929.14
2016-12-07T04:26:25.148Z,929.12
2016-12-07T04:26:52.837Z,929.12
2016-12-07T04:27:20.546Z,929.14
2016-12-07T04:27:48.228Z,929.1
2016-12-07T04:28:15.903Z,929.08
2016-12-07T04:28:43.602Z,929.08
2016-12-07T04:29:11.310Z,929.06
2016-12-07T04:29:38.985Z,929.04
2016-12-07T04:30:06.662Z,929.04
2016-12-07T04:30:34.362Z,929.04
2016-12-07T04:31:02.036Z,929.02
2016-12-07T04:31:29.817Z,929.02
2016-12-07T04:31:57.506Z,929.01
2016-12-07T04:32:25.223Z,928.98
2016-12-07T04:32:52.909Z,929.02
2016-12-07T04:33:20.609Z,929.01
2016-12-07T04:33:48.285Z,929
2016-12-07T04:34:15.984Z,928.98
2016-12-07T04:34:43.786Z,928.97
2016-12-07T04:35:11.619Z,928.97
2016-12-07T04:35:39.440Z,928.98
2016-12-07T04:36:07.121Z,928.95
2016-12-07T04:36:34.817Z,928.96
2016-12-07T04:37:02.601Z,928.96
2016-12-07T04:37:30.369Z,928.98
2016-12-07T04:37:58.169Z,928.93
2016-12-07T04:38:25.849Z,928.93
2016-12-07T04:38:53.689Z,928.91
2016-12-07T04:39:21.388Z,928.86
2016-12-07T04:39:49.081Z,928.83
2016-12-07T04:40:16.837Z,928.84
2016-12-07T04:40:44.522Z,928.78
2016-12-07T04:41:12.239Z,928.76
2016-12-07T04:41:40.039Z,928.72
2016-12-07T04:42:07.742Z,928.72
2016-12-07T04:42:35.533Z,928.7
2016-12-07T04:43:03.221Z,928.74
2016-12-07T04:43:30.902Z,928.69
2016-12-07T04:43:58.701Z,928.69
2016-12-07T04:44:26.481Z,928.7
2016-12-07T04:44:54.171Z,928.73
2016-12-07T04:45:21.846Z,928.7
2016-12-07T04:45:49.519Z,928.65
2016-12-07T04:46:17.216Z,928.69
2016-12-07T04:46:45.013Z,928.7
2016-12-07T04:47:12.716Z,928.67
2016-12-07T04:47:40.507Z,928.67
2016-12-07T04:48:08.312Z,928.66
2016-12-07T04:48:36.017Z,928.64
2016-12-07T04:49:03.793Z,928.66
2016-12-07T04:49:31.503Z,928.65
2016-12-07T04:49:59.187Z,928.64
2016-12-07T04:50:27.002Z,928.66
2016-12-07T04:50:54.701Z,928.66
2016-12-07T04:51:22.405Z,928.66
2016-12-07T04:51:50.179Z,928.7
2016-12-07T04:52:17.875Z,928.68
2016-12-07T04:52:45.670Z,928.71
2016-12-07T04:53:13.349Z,928.69
2016-12-07T04:53:41.053Z,928.71
2016-12-07T04:54:08.744Z,928.69
2016-12-07T04:54:36.525Z,928.67
2016-12-07T04:55:04.257Z,928.69
2016-12-07T04:55:31.954Z,928.68
2016-12-07T04:55:59.655Z,928.66
2016-12-07T04:56:27.434Z,928.63
2016-12-07T04:56:55.099Z,928.64
2016-12-07T04:57:22.794Z,928.66
2016-12-07T04:57:50.488Z,928.7
2016-12-07T04:58:18.162Z,928.68
2016-12-07T04:58:45.984Z,928.69
2016-12-07T04:59:13.690Z,928.71
2016-12-07T04:59:41.489Z,928.72
2016-12-07T05:00:09.202Z,928.73
2016-12-07T05:00:36.865Z,928.73
2016-12-07T05:01:04.553Z,928.74
2016-12-07T05:01:32.247Z,928.76
2016-12-07T05:01:59.962Z,928.72
2016-12-07T05:02:27.674Z,928.71
2016-12-07T05:02:55.389Z,928.7
2016-12-07T05:03:23.083Z,928.77
2016-12-07T05:03:50.798Z,928.72
2016-12-07T05:04:18.498Z,928.73
2016-12-07T05:04:46.211Z,928.74
2016-12-07T05:05:13.883Z,928.75
2016-12-07T05:05:41.576Z,928.77
2016-12-07T05:06:09.267Z,928.75
2016-12-07T05:06:36.969Z,928.77
2016-12-07T05:07:04.760Z,928.77
2016-12-07T05:07:32.440Z,928.82
2016-12-07T05:08:00.131Z,928.8
2016-12-07T05:08:27.902Z,928.8
2016-12-07T05:08:55.590Z,928.85
2016-12-07T05:09:23.293Z,928.83
2016-12-07T05:09:50.970Z,928.86
2016-12-07T05:10:18.864Z,928.87
2016-12-07T05:10:46.642Z,928.9
2016-12-07T05:11:14.344Z,928.93
2016-12-07T05:11:42.046Z,928.91
2016-12-07T05:12:09.720Z,928.9
2016-12-07T05:12:37.397Z,928.92
2016-12-07T05:13:05.122Z,928.89
2016-12-07T05:13:32.876Z,928.97
2016-12-07T05:14:00.563Z,928.93
2016-12-07T05:14:28.236Z,928.9
2016-12-07T05:14:55.958Z,928.92
2016-12-07T05:15:23.770Z,928.93
2016-12-07T05:15:51.419Z,928.9
2016-12-07T05:16:19.212Z,928.93
2016-12-07T05:16:46.974Z,928.91
2016-12-07T05:17:14.691Z,928.91
2016-12-07T05:17:42.373Z,928.92
2016-12-07T05:18:10.065Z,928.91
2016-12-07T05:18:37.963Z,928.92
2016-12-07T05:19:05.654Z,928.92
2016-12-07T05:19:33.354Z,928.95
2016-12-07T05:20:01.117Z,928.97
2016-12-07T05:20:28.933Z,928.97
2016-12-07T05:20:56.736Z,929.02
2016-12-07T05:21:24.484Z,929.05
2016-12-07T05:21:52.163Z,929.04
2016-12-07T05:22:19.831Z,929.09
2016-12-07T05:22:47.508Z,929.07
2016-12-07T05:23:15.202Z,929.12
2016-12-07T05:23:42.907Z,929.1
2016-12-07T05:24:10.579Z,929.05
2016-12-07T05:24:38.268Z,929.07
2016-12-07T05:25:05.980Z,929.07
2016-12-07T05:25:33.681Z,929.04
2016-12-07T05:26:01.467Z,929.02
2016-12-07T05:26:29.154Z,929
2016-12-07T05:26:56.877Z,929.01
2016-12-07T05:27:24.672Z,928.98
2016-12-07T05:27:52.386Z,928.97
2016-12-07T05:28:20.105Z,928.96
2016-12-07T05:28:47.809Z,928.94
2016-12-07T05:29:15.495Z,928.96
2016-12-07T05:29:43.191Z,928.94
2016-12-07T05:30:10.903Z,928.93
2016-12-07T05:30:38.582Z,928.94
2016-12-07T05:31:06.256Z,928.93
2016-12-07T05:31:33.968Z,928.92
2016-12-07T05:32:01.679Z,928.91
2016-12-07T05:32:29.390Z,928.9
2016-12-07T05:32:57.084Z,928.89
2016-12-07T05:33:24.752Z,928.87
2016-12-07T05:33:52.422Z,928.84
2016-12-07T05:34:20.122Z,928.87
2016-12-07T05:34:47.799Z,928.9
2016-12-07T05:35:15.456Z,928.83
2016-12-07T05:35:43.171Z,928.86
2016-12-07T05:36:10.871Z,928.84
2016-12-07T05:36:38.554Z,928.8
2016-12-07T05:37:06.272Z,928.79
2016-12-07T05:37:34.197Z,928.79
2016-12-07T05:38:01.961Z,928.77
2016-12-07T05:38:29.654Z,928.8
2016-12-07T05:38:57.442Z,928.81
2016-12-07T05:39:25.159Z,928.81
2016-12-07T05:39:52.854Z,928.83
2016-12-07T05:40:20.550Z,928.81
2016-12-07T05:40:48.253Z,928.82
2016-12-07T05:41:15.953Z,928.83
2016-12-07T05:41:43.620Z,928.82
2016-12-07T05:42:11.334Z,928.82
2016-12-07T05:42:39.109Z,928.85
2016-12-07T05:43:06.773Z,928.79
2016-12-07T05:43:34.467Z,928.82
2016-12-07T05:44:02.155Z,928.79
2016-12-07T05:44:29.940Z,928.8
2016-12-07T05:44:57.635Z,928.79
2016-12-07T05:45:25.324Z,928.78
2016-12-07T05:45:52.995Z,928.82
2016-12-07T05:46:20.706Z,928.78
2016-12-07T05:46:48.423Z,928.78
2016-12-07T05:47:16.114Z,928.8